sensor_id;sensor_type;location;lat;lon;timestamp;P1;durP1;ratioP1;P2;durP2;ratioP2
8626;SDS011;4351;51.422;6.794;2022-08-16T00:01:30;5.07;;;4.13;;
8626;SDS011;4351;51.422;6.794;2022-08-16T00:04:02;4.77;;;4.00;;
8626;SDS011;4351;51.422;6.794;2022-08-16T00:06:31;4.93;;;4.43;;
8626;SDS011;4351;51.422;6.794;2022-08-16T00:09:02;5.70;;;4.17;;
8626;SDS011;4351;51.422;6.794;2022-08-16T00:11:30;7.27;;;4.17;;
8626;SDS011;4351;51.422;6.794;2022-08-16T00:13:59;5.47;;;4.43;;
8626;SDS011;4351;51.422;6.794;2022-08-16T00:16:34;5.23;;;4.73;;
8626;SDS011;4351;51.422;6.794;2022-08-16T00:19:25;12.60;;;5.43;;
8626;SDS011;4351;51.422;6.794;2022-08-16T00:22:07;8.17;;;4.67;;
8626;SDS011;4351;51.422;6.794;2022-08-16T00:24:40;6.37;;;4.37;;
8626;SDS011;4351;51.422;6.794;2022-08-16T00:27:12;5.13;;;4.50;;
8626;SDS011;4351;51.422;6.794;2022-08-16T00:29:43;5.63;;;4.70;;
8626;SDS011;4351;51.422;6.794;2022-08-16T00:32:11;5.93;;;4.50;;
8626;SDS011;4351;51.422;6.794;2022-08-16T00:34:45;6.17;;;4.73;;
8626;SDS011;4351;51.422;6.794;2022-08-16T00:37:20;6.17;;;4.70;;
8626;SDS011;4351;51.422;6.794;2022-08-16T00:40:10;5.43;;;4.60;;
8626;SDS011;4351;51.422;6.794;2022-08-16T00:43:00;5.90;;;5.00;;
8626;SDS011;4351;51.422;6.794;2022-08-16T00:45:39;8.20;;;4.97;;
8626;SDS011;4351;51.422;6.794;2022-08-16T00:48:27;6.00;;;5.40;;
8626;SDS011;4351;51.422;6.794;2022-08-16T00:51:11;7.70;;;4.83;;
8626;SDS011;4351;51.422;6.794;2022-08-16T00:53:42;6.37;;;4.87;;
8626;SDS011;4351;51.422;6.794;2022-08-16T00:56:12;5.80;;;5.00;;
8626;SDS011;4351;51.422;6.794;2022-08-16T00:59:03;5.40;;;4.90;;
8626;SDS011;4351;51.422;6.794;2022-08-16T01:01:32;5.20;;;4.70;;
8626;SDS011;4351;51.422;6.794;2022-08-16T01:04:01;8.27;;;5.40;;
8626;SDS011;4351;51.422;6.794;2022-08-16T01:06:52;5.47;;;4.97;;
8626;SDS011;4351;51.422;6.794;2022-08-16T01:09:28;5.90;;;5.30;;
8626;SDS011;4351;51.422;6.794;2022-08-16T01:11:59;5.57;;;4.97;;
8626;SDS011;4351;51.422;6.794;2022-08-16T01:14:35;6.67;;;5.17;;
8626;SDS011;4351;51.422;6.794;2022-08-16T01:17:09;5.47;;;4.97;;
8626;SDS011;4351;51.422;6.794;2022-08-16T01:19:40;5.80;;;4.60;;
8626;SDS011;4351;51.422;6.794;2022-08-16T01:22:15;6.03;;;4.97;;
8626;SDS011;4351;51.422;6.794;2022-08-16T01:25:08;7.13;;;5.00;;
8626;SDS011;4351;51.422;6.794;2022-08-16T01:27:40;5.40;;;4.80;;
8626;SDS011;4351;51.422;6.794;2022-08-16T01:30:13;8.60;;;5.37;;
8626;SDS011;4351;51.422;6.794;2022-08-16T01:32:50;5.80;;;4.87;;
8626;SDS011;4351;51.422;6.794;2022-08-16T01:35:42;6.67;;;5.53;;
8626;SDS011;4351;51.422;6.794;2022-08-16T01:38:20;6.33;;;5.70;;
8626;SDS011;4351;51.422;6.794;2022-08-16T01:40:57;5.23;;;4.67;;
8626;SDS011;4351;51.422;6.794;2022-08-16T01:43:30;5.67;;;4.97;;
8626;SDS011;4351;51.422;6.794;2022-08-16T01:46:00;7.47;;;4.97;;
8626;SDS011;4351;51.422;6.794;2022-08-16T01:48:52;6.90;;;4.37;;
8626;SDS011;4351;51.422;6.794;2022-08-16T01:51:22;6.37;;;4.90;;
8626;SDS011;4351;51.422;6.794;2022-08-16T01:53:54;5.73;;;5.13;;
8626;SDS011;4351;51.422;6.794;2022-08-16T01:56:29;5.80;;;5.20;;
8626;SDS011;4351;51.422;6.794;2022-08-16T01:59:01;7.67;;;4.97;;
8626;SDS011;4351;51.422;6.794;2022-08-16T02:01:31;4.87;;;4.33;;
8626;SDS011;4351;51.422;6.794;2022-08-16T02:04:00;5.03;;;4.43;;
8626;SDS011;4351;51.422;6.794;2022-08-16T02:06:37;5.63;;;4.13;;
8626;SDS011;4351;51.422;6.794;2022-08-16T02:09:14;6.43;;;5.00;;
8626;SDS011;4351;51.422;6.794;2022-08-16T02:11:47;8.73;;;4.90;;
8626;SDS011;4351;51.422;6.794;2022-08-16T02:14:20;8.17;;;5.00;;
8626;SDS011;4351;51.422;6.794;2022-08-16T02:16:53;6.77;;;5.10;;
8626;SDS011;4351;51.422;6.794;2022-08-16T02:19:22;9.83;;;5.37;;
8626;SDS011;4351;51.422;6.794;2022-08-16T02:22:13;6.97;;;5.37;;
8626;SDS011;4351;51.422;6.794;2022-08-16T02:25:00;6.77;;;4.53;;
8626;SDS011;4351;51.422;6.794;2022-08-16T02:27:32;6.40;;;4.80;;
8626;SDS011;4351;51.422;6.794;2022-08-16T02:30:03;6.63;;;5.27;;
8626;SDS011;4351;51.422;6.794;2022-08-16T02:32:33;7.10;;;4.80;;
8626;SDS011;4351;51.422;6.794;2022-08-16T02:35:18;6.47;;;4.83;;
8626;SDS011;4351;51.422;6.794;2022-08-16T02:37:49;6.40;;;5.20;;
8626;SDS011;4351;51.422;6.794;2022-08-16T02:40:24;8.13;;;5.90;;
8626;SDS011;4351;51.422;6.794;2022-08-16T02:42:54;6.97;;;5.20;;
8626;SDS011;4351;51.422;6.794;2022-08-16T02:45:23;8.67;;;5.30;;
8626;SDS011;4351;51.422;6.794;2022-08-16T02:47:55;7.33;;;5.40;;
8626;SDS011;4351;51.422;6.794;2022-08-16T02:50:44;6.10;;;5.20;;
8626;SDS011;4351;51.422;6.794;2022-08-16T02:53:32;6.83;;;5.30;;
8626;SDS011;4351;51.422;6.794;2022-08-16T02:56:02;7.90;;;5.17;;
8626;SDS011;4351;51.422;6.794;2022-08-16T02:58:37;7.43;;;5.13;;
8626;SDS011;4351;51.422;6.794;2022-08-16T03:01:05;7.63;;;5.40;;
8626;SDS011;4351;51.422;6.794;2022-08-16T03:03:50;6.63;;;5.03;;
8626;SDS011;4351;51.422;6.794;2022-08-16T03:06:38;7.10;;;5.17;;
8626;SDS011;4351;51.422;6.794;2022-08-16T03:09:21;6.27;;;5.47;;
8626;SDS011;4351;51.422;6.794;2022-08-16T03:11:52;8.50;;;5.43;;
8626;SDS011;4351;51.422;6.794;2022-08-16T03:14:22;7.30;;;4.93;;
8626;SDS011;4351;51.422;6.794;2022-08-16T03:16:55;8.17;;;5.43;;
8626;SDS011;4351;51.422;6.794;2022-08-16T03:19:31;7.50;;;5.57;;
8626;SDS011;4351;51.422;6.794;2022-08-16T03:22:15;6.97;;;5.67;;
8626;SDS011;4351;51.422;6.794;2022-08-16T03:24:54;8.27;;;5.03;;
8626;SDS011;4351;51.422;6.794;2022-08-16T03:27:24;7.37;;;5.80;;
8626;SDS011;4351;51.422;6.794;2022-08-16T03:29:59;6.33;;;5.67;;
8626;SDS011;4351;51.422;6.794;2022-08-16T03:32:44;7.00;;;4.90;;
8626;SDS011;4351;51.422;6.794;2022-08-16T03:35:17;8.50;;;6.13;;
8626;SDS011;4351;51.422;6.794;2022-08-16T03:37:48;7.30;;;5.80;;
8626;SDS011;4351;51.422;6.794;2022-08-16T03:40:35;11.47;;;5.97;;
8626;SDS011;4351;51.422;6.794;2022-08-16T03:43:06;8.43;;;6.10;;
8626;SDS011;4351;51.422;6.794;2022-08-16T03:45:49;9.87;;;6.00;;
8626;SDS011;4351;51.422;6.794;2022-08-16T03:48:22;9.43;;;5.73;;
8626;SDS011;4351;51.422;6.794;2022-08-16T03:51:14;8.30;;;5.50;;
8626;SDS011;4351;51.422;6.794;2022-08-16T03:53:59;8.27;;;5.60;;
8626;SDS011;4351;51.422;6.794;2022-08-16T03:56:30;8.93;;;5.57;;
8626;SDS011;4351;51.422;6.794;2022-08-16T03:59:00;7.23;;;5.60;;
8626;SDS011;4351;51.422;6.794;2022-08-16T04:01:37;7.37;;;5.53;;
8626;SDS011;4351;51.422;6.794;2022-08-16T04:04:05;7.07;;;5.43;;
8626;SDS011;4351;51.422;6.794;2022-08-16T04:06:34;8.27;;;5.43;;
8626;SDS011;4351;51.422;6.794;2022-08-16T04:09:03;6.10;;;5.50;;
8626;SDS011;4351;51.422;6.794;2022-08-16T04:11:38;7.40;;;5.60;;
8626;SDS011;4351;51.422;6.794;2022-08-16T04:14:06;8.00;;;5.57;;
8626;SDS011;4351;51.422;6.794;2022-08-16T04:16:57;9.20;;;5.73;;
8626;SDS011;4351;51.422;6.794;2022-08-16T04:19:33;7.47;;;5.67;;
8626;SDS011;4351;51.422;6.794;2022-08-16T04:22:02;6.47;;;5.20;;
8626;SDS011;4351;51.422;6.794;2022-08-16T04:24:42;11.20;;;5.60;;
8626;SDS011;4351;51.422;6.794;2022-08-16T04:27:25;8.33;;;5.33;;
8626;SDS011;4351;51.422;6.794;2022-08-16T04:30:03;7.67;;;5.67;;
8626;SDS011;4351;51.422;6.794;2022-08-16T04:32:43;5.73;;;5.07;;
8626;SDS011;4351;51.422;6.794;2022-08-16T04:35:17;10.17;;;5.97;;
8626;SDS011;4351;51.422;6.794;2022-08-16T04:37:49;9.30;;;5.73;;
8626;SDS011;4351;51.422;6.794;2022-08-16T04:40:25;7.07;;;5.70;;
8626;SDS011;4351;51.422;6.794;2022-08-16T04:42:56;6.00;;;5.20;;
8626;SDS011;4351;51.422;6.794;2022-08-16T04:45:28;8.33;;;5.63;;
8626;SDS011;4351;51.422;6.794;2022-08-16T04:48:08;6.07;;;5.13;;
8626;SDS011;4351;51.422;6.794;2022-08-16T04:50:55;6.70;;;5.43;;
8626;SDS011;4351;51.422;6.794;2022-08-16T04:53:36;7.93;;;5.83;;
8626;SDS011;4351;51.422;6.794;2022-08-16T04:56:07;8.00;;;5.70;;
8626;SDS011;4351;51.422;6.794;2022-08-16T04:58:38;7.37;;;4.83;;
8626;SDS011;4351;51.422;6.794;2022-08-16T05:01:13;6.20;;;4.80;;
8626;SDS011;4351;51.422;6.794;2022-08-16T05:03:45;9.00;;;5.30;;
8626;SDS011;4351;51.422;6.794;2022-08-16T05:06:28;9.17;;;5.30;;
8626;SDS011;4351;51.422;6.794;2022-08-16T05:09:29;7.37;;;5.13;;
8626;SDS011;4351;51.422;6.794;2022-08-16T05:12:03;5.37;;;4.80;;
8626;SDS011;4351;51.422;6.794;2022-08-16T05:14:37;8.23;;;4.90;;
8626;SDS011;4351;51.422;6.794;2022-08-16T05:17:16;9.57;;;5.60;;
8626;SDS011;4351;51.422;6.794;2022-08-16T05:19:53;11.70;;;5.03;;
8626;SDS011;4351;51.422;6.794;2022-08-16T05:22:32;7.80;;;5.40;;
8626;SDS011;4351;51.422;6.794;2022-08-16T05:25:02;6.53;;;4.50;;
8626;SDS011;4351;51.422;6.794;2022-08-16T05:27:36;6.30;;;5.07;;
8626;SDS011;4351;51.422;6.794;2022-08-16T05:30:11;5.73;;;4.70;;
8626;SDS011;4351;51.422;6.794;2022-08-16T05:33:02;5.63;;;4.93;;
8626;SDS011;4351;51.422;6.794;2022-08-16T05:35:35;9.00;;;5.00;;
8626;SDS011;4351;51.422;6.794;2022-08-16T05:38:14;8.33;;;5.13;;
8626;SDS011;4351;51.422;6.794;2022-08-16T05:41:05;8.20;;;5.63;;
8626;SDS011;4351;51.422;6.794;2022-08-16T05:43:39;8.53;;;5.23;;
8626;SDS011;4351;51.422;6.794;2022-08-16T05:46:13;6.20;;;4.20;;
8626;SDS011;4351;51.422;6.794;2022-08-16T05:48:56;7.47;;;4.97;;
8626;SDS011;4351;51.422;6.794;2022-08-16T05:51:38;7.23;;;5.13;;
8626;SDS011;4351;51.422;6.794;2022-08-16T05:54:09;6.43;;;4.20;;
8626;SDS011;4351;51.422;6.794;2022-08-16T05:56:40;6.47;;;4.73;;
8626;SDS011;4351;51.422;6.794;2022-08-16T05:59:15;8.23;;;5.20;;
8626;SDS011;4351;51.422;6.794;2022-08-16T06:01:44;5.40;;;4.73;;
8626;SDS011;4351;51.422;6.794;2022-08-16T06:04:17;6.57;;;5.63;;
8626;SDS011;4351;51.422;6.794;2022-08-16T06:07:07;9.20;;;5.00;;
8626;SDS011;4351;51.422;6.794;2022-08-16T06:10:02;7.17;;;4.67;;
8626;SDS011;4351;51.422;6.794;2022-08-16T06:12:33;9.63;;;5.70;;
8626;SDS011;4351;51.422;6.794;2022-08-16T06:15:06;7.00;;;5.17;;
8626;SDS011;4351;51.422;6.794;2022-08-16T06:17:42;6.30;;;5.07;;
8626;SDS011;4351;51.422;6.794;2022-08-16T06:20:16;7.17;;;4.87;;
8626;SDS011;4351;51.422;6.794;2022-08-16T06:22:53;8.13;;;5.10;;
8626;SDS011;4351;51.422;6.794;2022-08-16T06:25:47;7.37;;;6.10;;
8626;SDS011;4351;51.422;6.794;2022-08-16T06:28:21;9.63;;;5.60;;
8626;SDS011;4351;51.422;6.794;2022-08-16T06:31:06;6.13;;;4.77;;
8626;SDS011;4351;51.422;6.794;2022-08-16T06:33:40;8.13;;;6.10;;
8626;SDS011;4351;51.422;6.794;2022-08-16T06:36:12;11.10;;;6.10;;
8626;SDS011;4351;51.422;6.794;2022-08-16T06:38:53;9.23;;;5.83;;
8626;SDS011;4351;51.422;6.794;2022-08-16T06:41:41;9.10;;;6.33;;
8626;SDS011;4351;51.422;6.794;2022-08-16T06:44:19;8.10;;;7.30;;
8626;SDS011;4351;51.422;6.794;2022-08-16T06:46:55;8.70;;;6.13;;
8626;SDS011;4351;51.422;6.794;2022-08-16T06:49:28;8.93;;;6.40;;
8626;SDS011;4351;51.422;6.794;2022-08-16T06:51:59;9.07;;;6.57;;
8626;SDS011;4351;51.422;6.794;2022-08-16T06:54:33;6.90;;;6.20;;
8626;SDS011;4351;51.422;6.794;2022-08-16T06:57:01;8.67;;;5.60;;
8626;SDS011;4351;51.422;6.794;2022-08-16T06:59:37;9.03;;;5.43;;
8626;SDS011;4351;51.422;6.794;2022-08-16T07:02:19;8.20;;;6.87;;
8626;SDS011;4351;51.422;6.794;2022-08-16T07:05:01;8.20;;;6.73;;
8626;SDS011;4351;51.422;6.794;2022-08-16T07:07:46;11.10;;;7.00;;
8626;SDS011;4351;51.422;6.794;2022-08-16T07:10:23;8.87;;;6.33;;
8626;SDS011;4351;51.422;6.794;2022-08-16T07:12:53;8.93;;;7.40;;
8626;SDS011;4351;51.422;6.794;2022-08-16T07:15:36;12.73;;;8.63;;
8626;SDS011;4351;51.422;6.794;2022-08-16T07:18:18;10.17;;;8.00;;
8626;SDS011;4351;51.422;6.794;2022-08-16T07:20:50;11.53;;;7.30;;
8626;SDS011;4351;51.422;6.794;2022-08-16T07:23:19;14.60;;;8.07;;
8626;SDS011;4351;51.422;6.794;2022-08-16T07:26:08;11.20;;;8.10;;
8626;SDS011;4351;51.422;6.794;2022-08-16T07:28:53;12.53;;;7.57;;
8626;SDS011;4351;51.422;6.794;2022-08-16T07:31:21;10.23;;;7.60;;
8626;SDS011;4351;51.422;6.794;2022-08-16T07:34:03;10.90;;;7.27;;
8626;SDS011;4351;51.422;6.794;2022-08-16T07:36:36;9.13;;;6.60;;
8626;SDS011;4351;51.422;6.794;2022-08-16T07:39:05;9.33;;;6.73;;
8626;SDS011;4351;51.422;6.794;2022-08-16T07:41:38;9.63;;;6.97;;
8626;SDS011;4351;51.422;6.794;2022-08-16T07:44:08;9.03;;;6.73;;
8626;SDS011;4351;51.422;6.794;2022-08-16T07:46:43;8.30;;;6.40;;
8626;SDS011;4351;51.422;6.794;2022-08-16T07:49:16;7.30;;;6.40;;
8626;SDS011;4351;51.422;6.794;2022-08-16T07:51:45;8.20;;;7.37;;
8626;SDS011;4351;51.422;6.794;2022-08-16T07:54:15;12.50;;;7.03;;
8626;SDS011;4351;51.422;6.794;2022-08-16T07:57:01;11.07;;;7.17;;
8626;SDS011;4351;51.422;6.794;2022-08-16T07:59:30;7.47;;;6.20;;
8626;SDS011;4351;51.422;6.794;2022-08-16T08:02:13;16.33;;;9.63;;
8626;SDS011;4351;51.422;6.794;2022-08-16T08:04:49;10.93;;;8.07;;
8626;SDS011;4351;51.422;6.794;2022-08-16T08:07:17;13.23;;;7.97;;
8626;SDS011;4351;51.422;6.794;2022-08-16T08:09:47;14.17;;;9.17;;
8626;SDS011;4351;51.422;6.794;2022-08-16T08:12:17;12.67;;;8.50;;
8626;SDS011;4351;51.422;6.794;2022-08-16T08:15:02;11.70;;;7.97;;
8626;SDS011;4351;51.422;6.794;2022-08-16T08:17:37;16.50;;;8.40;;
8626;SDS011;4351;51.422;6.794;2022-08-16T08:20:13;12.27;;;7.37;;
8626;SDS011;4351;51.422;6.794;2022-08-16T08:22:53;11.10;;;7.23;;
8626;SDS011;4351;51.422;6.794;2022-08-16T08:25:31;9.80;;;7.53;;
8626;SDS011;4351;51.422;6.794;2022-08-16T08:28:21;8.47;;;6.80;;
8626;SDS011;4351;51.422;6.794;2022-08-16T08:30:55;14.60;;;8.07;;
8626;SDS011;4351;51.422;6.794;2022-08-16T08:33:30;11.13;;;8.03;;
8626;SDS011;4351;51.422;6.794;2022-08-16T08:36:00;10.63;;;8.60;;
8626;SDS011;4351;51.422;6.794;2022-08-16T08:38:34;14.20;;;8.30;;
8626;SDS011;4351;51.422;6.794;2022-08-16T08:41:13;11.13;;;8.27;;
8626;SDS011;4351;51.422;6.794;2022-08-16T08:43:50;9.53;;;7.10;;
8626;SDS011;4351;51.422;6.794;2022-08-16T08:46:19;10.17;;;6.90;;
8626;SDS011;4351;51.422;6.794;2022-08-16T08:48:50;9.57;;;6.63;;
8626;SDS011;4351;51.422;6.794;2022-08-16T08:51:31;13.03;;;8.20;;
8626;SDS011;4351;51.422;6.794;2022-08-16T08:54:04;10.53;;;7.90;;
8626;SDS011;4351;51.422;6.794;2022-08-16T08:56:38;11.47;;;8.10;;
8626;SDS011;4351;51.422;6.794;2022-08-16T08:59:33;8.80;;;7.83;;
8626;SDS011;4351;51.422;6.794;2022-08-16T09:02:08;13.33;;;7.80;;
8626;SDS011;4351;51.422;6.794;2022-08-16T09:04:46;10.43;;;9.03;;
8626;SDS011;4351;51.422;6.794;2022-08-16T09:07:22;10.27;;;8.40;;
8626;SDS011;4351;51.422;6.794;2022-08-16T09:10:02;11.37;;;8.23;;
8626;SDS011;4351;51.422;6.794;2022-08-16T09:12:36;11.37;;;8.00;;
8626;SDS011;4351;51.422;6.794;2022-08-16T09:15:13;12.97;;;8.27;;
8626;SDS011;4351;51.422;6.794;2022-08-16T09:17:47;11.20;;;7.23;;
8626;SDS011;4351;51.422;6.794;2022-08-16T09:20:25;8.90;;;7.50;;
8626;SDS011;4351;51.422;6.794;2022-08-16T09:22:55;10.00;;;8.00;;
8626;SDS011;4351;51.422;6.794;2022-08-16T09:25:28;11.23;;;9.37;;
8626;SDS011;4351;51.422;6.794;2022-08-16T09:28:01;10.43;;;8.27;;
8626;SDS011;4351;51.422;6.794;2022-08-16T09:30:43;10.37;;;7.43;;
8626;SDS011;4351;51.422;6.794;2022-08-16T09:33:13;11.10;;;7.80;;
8626;SDS011;4351;51.422;6.794;2022-08-16T09:35:46;10.77;;;7.30;;
8626;SDS011;4351;51.422;6.794;2022-08-16T09:38:19;15.33;;;8.30;;
8626;SDS011;4351;51.422;6.794;2022-08-16T09:40:58;9.67;;;6.87;;
8626;SDS011;4351;51.422;6.794;2022-08-16T09:43:28;10.27;;;7.63;;
8626;SDS011;4351;51.422;6.794;2022-08-16T09:46:18;20.43;;;7.87;;
8626;SDS011;4351;51.422;6.794;2022-08-16T09:49:07;10.83;;;7.00;;
8626;SDS011;4351;51.422;6.794;2022-08-16T09:51:37;12.63;;;6.57;;
8626;SDS011;4351;51.422;6.794;2022-08-16T09:54:06;11.57;;;7.13;;
8626;SDS011;4351;51.422;6.794;2022-08-16T09:56:42;8.83;;;6.67;;
8626;SDS011;4351;51.422;6.794;2022-08-16T09:59:19;8.93;;;7.20;;
8626;SDS011;4351;51.422;6.794;2022-08-16T10:01:52;9.07;;;7.20;;
8626;SDS011;4351;51.422;6.794;2022-08-16T10:04:21;9.47;;;6.77;;
8626;SDS011;4351;51.422;6.794;2022-08-16T10:06:58;9.93;;;6.53;;
8626;SDS011;4351;51.422;6.794;2022-08-16T10:09:28;8.77;;;6.80;;
8626;SDS011;4351;51.422;6.794;2022-08-16T10:12:16;8.33;;;6.30;;
8626;SDS011;4351;51.422;6.794;2022-08-16T10:15:12;10.43;;;6.83;;
8626;SDS011;4351;51.422;6.794;2022-08-16T10:18:27;8.03;;;5.63;;
8626;SDS011;4351;51.422;6.794;2022-08-16T10:21:39;7.10;;;5.73;;
8626;SDS011;4351;51.422;6.794;2022-08-16T10:24:29;12.00;;;5.90;;
8626;SDS011;4351;51.422;6.794;2022-08-16T10:27:40;8.63;;;6.20;;
8626;SDS011;4351;51.422;6.794;2022-08-16T10:31:13;11.83;;;6.50;;
8626;SDS011;4351;51.422;6.794;2022-08-16T10:42:26;6.13;;;4.97;;
8626;SDS011;4351;51.422;6.794;2022-08-16T10:45:14;11.43;;;6.13;;
8626;SDS011;4351;51.422;6.794;2022-08-16T10:58:16;9.27;;;5.73;;
8626;SDS011;4351;51.422;6.794;2022-08-16T11:01:00;7.07;;;5.73;;
8626;SDS011;4351;51.422;6.794;2022-08-16T11:03:52;6.33;;;5.67;;
8626;SDS011;4351;51.422;6.794;2022-08-16T11:06:23;10.20;;;5.80;;
8626;SDS011;4351;51.422;6.794;2022-08-16T11:08:55;9.57;;;5.50;;
8626;SDS011;4351;51.422;6.794;2022-08-16T11:11:50;9.83;;;5.37;;
8626;SDS011;4351;51.422;6.794;2022-08-16T11:14:40;8.67;;;5.70;;
8626;SDS011;4351;51.422;6.794;2022-08-16T11:17:29;8.43;;;5.43;;
8626;SDS011;4351;51.422;6.794;2022-08-16T11:19:58;13.00;;;6.07;;
8626;SDS011;4351;51.422;6.794;2022-08-16T11:22:48;8.80;;;5.07;;
8626;SDS011;4351;51.422;6.794;2022-08-16T11:25:20;14.17;;;5.50;;
8626;SDS011;4351;51.422;6.794;2022-08-16T11:28:09;8.93;;;5.50;;
8626;SDS011;4351;51.422;6.794;2022-08-16T11:31:39;7.17;;;5.13;;
8626;SDS011;4351;51.422;6.794;2022-08-16T11:34:31;8.07;;;5.13;;
8626;SDS011;4351;51.422;6.794;2022-08-16T11:37:28;7.40;;;5.00;;
8626;SDS011;4351;51.422;6.794;2022-08-16T11:40:19;7.73;;;5.20;;
8626;SDS011;4351;51.422;6.794;2022-08-16T11:42:59;6.20;;;5.57;;
8626;SDS011;4351;51.422;6.794;2022-08-16T11:45:40;11.47;;;6.10;;
8626;SDS011;4351;51.422;6.794;2022-08-16T11:48:23;11.13;;;6.17;;
8626;SDS011;4351;51.422;6.794;2022-08-16T11:50:56;9.40;;;5.70;;
8626;SDS011;4351;51.422;6.794;2022-08-16T11:53:40;11.17;;;5.73;;
8626;SDS011;4351;51.422;6.794;2022-08-16T11:57:30;8.90;;;6.13;;
8626;SDS011;4351;51.422;6.794;2022-08-16T12:00:20;11.13;;;5.50;;
8626;SDS011;4351;51.422;6.794;2022-08-16T12:03:27;6.73;;;5.27;;
8626;SDS011;4351;51.422;6.794;2022-08-16T12:06:08;13.03;;;5.60;;
8626;SDS011;4351;51.422;6.794;2022-08-16T12:08:51;7.47;;;5.33;;
8626;SDS011;4351;51.422;6.794;2022-08-16T12:11:27;16.63;;;6.07;;
8626;SDS011;4351;51.422;6.794;2022-08-16T12:13:57;6.20;;;5.27;;
8626;SDS011;4351;51.422;6.794;2022-08-16T12:16:25;8.17;;;5.27;;
8626;SDS011;4351;51.422;6.794;2022-08-16T12:19:02;10.13;;;5.43;;
8626;SDS011;4351;51.422;6.794;2022-08-16T12:21:36;7.53;;;5.37;;
8626;SDS011;4351;51.422;6.794;2022-08-16T12:24:25;11.73;;;5.57;;
8626;SDS011;4351;51.422;6.794;2022-08-16T12:26:54;9.23;;;5.60;;
8626;SDS011;4351;51.422;6.794;2022-08-16T12:29:25;9.20;;;5.97;;
8626;SDS011;4351;51.422;6.794;2022-08-16T12:31:58;6.83;;;5.63;;
8626;SDS011;4351;51.422;6.794;2022-08-16T12:34:48;10.53;;;5.87;;
8626;SDS011;4351;51.422;6.794;2022-08-16T12:37:19;8.50;;;5.87;;
8626;SDS011;4351;51.422;6.794;2022-08-16T12:39:50;7.93;;;5.23;;
8626;SDS011;4351;51.422;6.794;2022-08-16T12:42:20;8.13;;;5.70;;
8626;SDS011;4351;51.422;6.794;2022-08-16T12:45:02;6.70;;;4.90;;
8626;SDS011;4351;51.422;6.794;2022-08-16T12:47:32;7.10;;;4.87;;
8626;SDS011;4351;51.422;6.794;2022-08-16T12:50:39;7.73;;;5.07;;
8626;SDS011;4351;51.422;6.794;2022-08-16T12:53:14;9.00;;;5.13;;
8626;SDS011;4351;51.422;6.794;2022-08-16T12:55:43;10.10;;;5.37;;
8626;SDS011;4351;51.422;6.794;2022-08-16T12:58:13;7.90;;;5.47;;
8626;SDS011;4351;51.422;6.794;2022-08-16T13:01:02;6.93;;;5.07;;
8626;SDS011;4351;51.422;6.794;2022-08-16T13:03:30;10.17;;;5.50;;
8626;SDS011;4351;51.422;6.794;2022-08-16T13:06:07;9.67;;;5.70;;
8626;SDS011;4351;51.422;6.794;2022-08-16T13:08:38;6.50;;;4.97;;
8626;SDS011;4351;51.422;6.794;2022-08-16T13:11:12;6.93;;;4.50;;
8626;SDS011;4351;51.422;6.794;2022-08-16T13:13:43;5.80;;;5.20;;
8626;SDS011;4351;51.422;6.794;2022-08-16T13:16:27;5.67;;;4.87;;
8626;SDS011;4351;51.422;6.794;2022-08-16T13:18:55;7.03;;;4.80;;
8626;SDS011;4351;51.422;6.794;2022-08-16T13:21:25;6.87;;;5.20;;
8626;SDS011;4351;51.422;6.794;2022-08-16T13:23:53;7.90;;;5.00;;
8626;SDS011;4351;51.422;6.794;2022-08-16T13:26:21;8.03;;;5.13;;
8626;SDS011;4351;51.422;6.794;2022-08-16T13:28:52;8.20;;;5.03;;
8626;SDS011;4351;51.422;6.794;2022-08-16T13:31:20;5.93;;;5.20;;
8626;SDS011;4351;51.422;6.794;2022-08-16T13:33:49;8.77;;;4.90;;
8626;SDS011;4351;51.422;6.794;2022-08-16T13:36:25;6.10;;;5.30;;
8626;SDS011;4351;51.422;6.794;2022-08-16T13:39:14;7.70;;;5.30;;
8626;SDS011;4351;51.422;6.794;2022-08-16T13:41:42;8.47;;;5.77;;
8626;SDS011;4351;51.422;6.794;2022-08-16T13:44:19;9.60;;;5.47;;
8626;SDS011;4351;51.422;6.794;2022-08-16T13:47:08;7.37;;;5.23;;
8626;SDS011;4351;51.422;6.794;2022-08-16T13:49:38;6.10;;;5.33;;
8626;SDS011;4351;51.422;6.794;2022-08-16T13:52:10;6.17;;;4.70;;
8626;SDS011;4351;51.422;6.794;2022-08-16T13:54:38;9.87;;;5.70;;
8626;SDS011;4351;51.422;6.794;2022-08-16T13:57:06;8.30;;;5.57;;
8626;SDS011;4351;51.422;6.794;2022-08-16T13:59:37;7.43;;;5.23;;
8626;SDS011;4351;51.422;6.794;2022-08-16T14:02:06;6.77;;;5.33;;
8626;SDS011;4351;51.422;6.794;2022-08-16T14:04:37;9.90;;;5.47;;
8626;SDS011;4351;51.422;6.794;2022-08-16T14:07:08;6.10;;;5.40;;
8626;SDS011;4351;51.422;6.794;2022-08-16T14:09:50;6.73;;;5.20;;
8626;SDS011;4351;51.422;6.794;2022-08-16T14:12:22;5.67;;;5.13;;
8626;SDS011;4351;51.422;6.794;2022-08-16T14:14:52;8.77;;;4.90;;
8626;SDS011;4351;51.422;6.794;2022-08-16T14:17:26;6.83;;;5.00;;
8626;SDS011;4351;51.422;6.794;2022-08-16T14:20:17;9.27;;;5.23;;
8626;SDS011;4351;51.422;6.794;2022-08-16T14:22:47;7.37;;;4.97;;
8626;SDS011;4351;51.422;6.794;2022-08-16T14:25:20;7.17;;;4.90;;
8626;SDS011;4351;51.422;6.794;2022-08-16T14:27:49;8.37;;;5.40;;
8626;SDS011;4351;51.422;6.794;2022-08-16T14:30:20;7.80;;;5.20;;
8626;SDS011;4351;51.422;6.794;2022-08-16T14:32:49;8.60;;;5.23;;
8626;SDS011;4351;51.422;6.794;2022-08-16T14:35:19;7.43;;;5.00;;
8626;SDS011;4351;51.422;6.794;2022-08-16T14:38:10;6.73;;;4.80;;
8626;SDS011;4351;51.422;6.794;2022-08-16T14:40:44;7.50;;;5.30;;
8626;SDS011;4351;51.422;6.794;2022-08-16T14:43:20;10.87;;;5.40;;
8626;SDS011;4351;51.422;6.794;2022-08-16T14:45:49;8.20;;;5.30;;
8626;SDS011;4351;51.422;6.794;2022-08-16T14:48:20;7.60;;;5.40;;
8626;SDS011;4351;51.422;6.794;2022-08-16T14:50:51;7.77;;;5.60;;
8626;SDS011;4351;51.422;6.794;2022-08-16T14:53:22;7.30;;;5.50;;
8626;SDS011;4351;51.422;6.794;2022-08-16T14:55:52;7.00;;;5.03;;
8626;SDS011;4351;51.422;6.794;2022-08-16T14:58:20;7.70;;;4.87;;
8626;SDS011;4351;51.422;6.794;2022-08-16T15:01:02;7.23;;;5.47;;
8626;SDS011;4351;51.422;6.794;2022-08-16T15:03:43;7.73;;;5.07;;
8626;SDS011;4351;51.422;6.794;2022-08-16T15:06:21;6.50;;;5.80;;
8626;SDS011;4351;51.422;6.794;2022-08-16T15:08:51;6.00;;;5.30;;
8626;SDS011;4351;51.422;6.794;2022-08-16T15:11:19;7.23;;;5.03;;
8626;SDS011;4351;51.422;6.794;2022-08-16T15:13:48;9.70;;;5.20;;
8626;SDS011;4351;51.422;6.794;2022-08-16T15:16:17;5.30;;;4.57;;
8626;SDS011;4351;51.422;6.794;2022-08-16T15:18:45;6.20;;;4.80;;
8626;SDS011;4351;51.422;6.794;2022-08-16T15:21:14;4.90;;;4.40;;
8626;SDS011;4351;51.422;6.794;2022-08-16T15:23:43;5.13;;;4.63;;
8626;SDS011;4351;51.422;6.794;2022-08-16T15:27:00;5.00;;;4.57;;
8626;SDS011;4351;51.422;6.794;2022-08-16T15:29:30;8.13;;;4.90;;
8626;SDS011;4351;51.422;6.794;2022-08-16T15:31:58;8.10;;;4.83;;
8626;SDS011;4351;51.422;6.794;2022-08-16T15:38:11;5.27;;;4.70;;
8626;SDS011;4351;51.422;6.794;2022-08-16T15:41:26;6.90;;;4.70;;
8626;SDS011;4351;51.422;6.794;2022-08-16T16:54:56;5.27;;;4.60;;
8626;SDS011;4351;51.422;6.794;2022-08-16T16:57:27;7.33;;;4.17;;
8626;SDS011;4351;51.422;6.794;2022-08-16T17:00:31;15.33;;;5.33;;
8626;SDS011;4351;51.422;6.794;2022-08-16T17:03:07;8.17;;;4.70;;
8626;SDS011;4351;51.422;6.794;2022-08-16T17:05:43;5.60;;;4.10;;
8626;SDS011;4351;51.422;6.794;2022-08-16T17:08:28;7.97;;;4.33;;
8626;SDS011;4351;51.422;6.794;2022-08-16T17:11:00;6.10;;;4.07;;
8626;SDS011;4351;51.422;6.794;2022-08-16T17:13:29;9.07;;;4.80;;
8626;SDS011;4351;51.422;6.794;2022-08-16T17:15:58;6.10;;;4.70;;
8626;SDS011;4351;51.422;6.794;2022-08-16T17:18:47;5.27;;;4.20;;
8626;SDS011;4351;51.422;6.794;2022-08-16T17:21:37;6.90;;;4.67;;
8626;SDS011;4351;51.422;6.794;2022-08-16T17:24:07;5.73;;;4.90;;
8626;SDS011;4351;51.422;6.794;2022-08-16T17:26:57;7.07;;;4.50;;
8626;SDS011;4351;51.422;6.794;2022-08-16T17:29:29;9.20;;;4.87;;
8626;SDS011;4351;51.422;6.794;2022-08-16T17:32:03;6.57;;;4.60;;
8626;SDS011;4351;51.422;6.794;2022-08-16T17:34:57;5.10;;;4.63;;
8626;SDS011;4351;51.422;6.794;2022-08-16T17:37:34;4.60;;;4.10;;
8626;SDS011;4351;51.422;6.794;2022-08-16T17:40:18;5.67;;;4.50;;
8626;SDS011;4351;51.422;6.794;2022-08-16T17:43:10;5.50;;;4.70;;
8626;SDS011;4351;51.422;6.794;2022-08-16T17:45:43;5.30;;;4.40;;
8626;SDS011;4351;51.422;6.794;2022-08-16T17:48:13;4.93;;;4.40;;
8626;SDS011;4351;51.422;6.794;2022-08-16T17:50:42;5.83;;;4.60;;